< < Back
Terminal Aerodrome Forecast


Current Version              Previous Versions:   1  2  3  4  5  6  7  8  9  

Terminal Aerodrome Forecast

699
FTUS44 KBMX 240500
TAFBHM
TAF
KBHM 240526Z 2406/2506 00000KT P6SM SKC
     FM241600 18006KT P6SM SCT050=



Latest METAR

569
SAUS70 KWBC 241300 RRE
MTRBHM
METAR KBHM 241253Z 00000KT 10SM FEW060 17/04 A3002 RMK AO2 SLP161
T01670039


USA.gov is the U.S. government's official web portal to all federal, state and local government web resources and services.